createdAt,value
2022-12-18T00:01:16.345Z,88.25
2022-12-18T00:04:03.062Z,89.45
2022-12-18T00:06:49.417Z,88.86
2022-12-18T00:09:39.985Z,87.84
2022-12-18T00:12:23.884Z,86.72
2022-12-18T00:15:08.067Z,87.41
2022-12-18T00:17:51.596Z,88.62
2022-12-18T00:20:41.020Z,89.03
2022-12-18T00:23:24.745Z,88.87
2022-12-18T00:26:14.607Z,88.65
2022-12-18T00:29:09.025Z,88.39
2022-12-18T00:31:52.497Z,88.70
2022-12-18T00:34:36.050Z,89.11
2022-12-18T00:37:20.393Z,89.99
2022-12-18T00:40:09.041Z,89.38
2022-12-18T00:42:56.433Z,88.52
2022-12-18T00:45:40.317Z,86.89
2022-12-18T00:48:24.343Z,86.56
2022-12-18T00:51:09.840Z,87.41
2022-12-18T00:53:53.841Z,89.22
2022-12-18T00:56:48.446Z,88.88
2022-12-18T00:59:32.475Z,88.70
2022-12-18T01:02:16.032Z,88.90
2022-12-18T01:05:00.024Z,89.22
2022-12-18T01:07:43.462Z,89.28
2022-12-18T01:10:27.786Z,89.53
2022-12-18T01:13:14.729Z,89.64
2022-12-18T01:15:58.619Z,89.23
2022-12-18T01:18:42.498Z,88.61
2022-12-18T01:21:25.966Z,88.09
2022-12-18T01:24:13.197Z,87.84
2022-12-18T01:26:58.230Z,88.11
2022-12-18T01:29:42.005Z,88.11
2022-12-18T01:32:25.484Z,88.14
2022-12-18T01:35:09.442Z,88.06
2022-12-18T01:37:56.712Z,88.67
2022-12-18T01:40:40.179Z,87.77
2022-12-18T01:43:23.807Z,87.16
2022-12-18T01:46:07.512Z,86.86
2022-12-18T01:48:58.973Z,86.51
2022-12-18T01:51:43.919Z,86.51
2022-12-18T01:54:28.607Z,86.28
2022-12-18T01:57:12.745Z,86.91
2022-12-18T02:00:04.555Z,86.52
2022-12-18T02:02:57.280Z,86.01
2022-12-18T02:05:59.801Z,86.12
2022-12-18T02:09:19.777Z,85.63
2022-12-18T02:12:14.744Z,86.67
2022-12-18T02:15:18.596Z,86.99
2022-12-18T02:18:29.575Z,86.94
2022-12-18T02:21:38.482Z,86.90
2022-12-18T02:24:56.666Z,87.96
2022-12-18T02:27:44.849Z,87.71
2022-12-18T02:30:36.079Z,86.85
2022-12-18T02:33:22.533Z,87.12
2022-12-18T02:36:12.802Z,87.60
2022-12-18T02:38:58.841Z,88.29
2022-12-18T02:41:43.650Z,87.86
2022-12-18T02:44:27.835Z,88.16
2022-12-18T02:47:15.483Z,87.65
2022-12-18T02:50:06.974Z,88.07
2022-12-18T02:53:09.149Z,88.04
2022-12-18T02:56:16.564Z,86.74
2022-12-18T02:59:12.621Z,87.23
2022-12-18T03:02:08.219Z,86.86
2022-12-18T03:05:11.737Z,87.74
2022-12-18T03:08:22.509Z,88.13
2022-12-18T03:11:11.200Z,88.39
2022-12-18T03:14:00.194Z,88.88
2022-12-18T03:16:48.114Z,88.85
2022-12-18T03:19:34.269Z,89.55
2022-12-18T03:22:21.096Z,89.48
2022-12-18T03:25:14.299Z,88.59
2022-12-18T03:28:06.440Z,88.19
2022-12-18T03:31:00.158Z,87.66
2022-12-18T03:33:55.478Z,88.48
2022-12-18T03:36:44.742Z,88.64
2022-12-18T03:39:28.876Z,87.91
2022-12-18T03:42:36.390Z,86.93
2022-12-18T03:45:38.904Z,87.11
2022-12-18T03:48:42.421Z,87.27
2022-12-18T03:51:49.610Z,86.58
2022-12-18T03:54:37.210Z,87.48
2022-12-18T03:57:33.226Z,87.48
2022-12-18T04:00:21.478Z,87.61
2022-12-18T04:03:26.153Z,87.62
2022-12-18T04:06:12.523Z,87.56
2022-12-18T04:09:00.327Z,87.44
2022-12-18T04:11:45.408Z,87.94
2022-12-18T04:14:30.817Z,89.17
2022-12-18T04:17:14.389Z,88.84
2022-12-18T04:19:57.858Z,88.58
2022-12-18T04:22:42.048Z,87.61
2022-12-18T04:25:25.853Z,87.75
2022-12-18T04:28:21.631Z,87.80
2022-12-18T04:31:05.797Z,88.44
2022-12-18T04:33:49.440Z,87.66
2022-12-18T04:36:33.441Z,88.71
2022-12-18T04:39:17.062Z,88.48
2022-12-18T04:42:00.845Z,88.05
2022-12-18T04:44:45.789Z,87.36
2022-12-18T04:47:29.243Z,88.35
2022-12-18T04:50:12.762Z,87.86
2022-12-18T04:52:56.608Z,88.01
2022-12-18T04:55:40.087Z,88.68
2022-12-18T04:58:23.541Z,88.73
2022-12-18T05:01:08.607Z,88.80
2022-12-18T05:03:53.243Z,89.65
2022-12-18T05:06:36.732Z,89.33
2022-12-18T05:09:20.218Z,89.59
2022-12-18T05:12:03.886Z,89.55
2022-12-18T05:14:47.328Z,89.38
2022-12-18T05:17:30.811Z,89.03
2022-12-18T05:20:14.354Z,89.10
2022-12-18T05:22:57.903Z,89.20
2022-12-18T05:25:41.337Z,88.77
2022-12-18T05:28:28.271Z,88.58
2022-12-18T05:31:12.355Z,89.14
2022-12-18T05:33:55.948Z,88.49
2022-12-18T05:36:39.416Z,88.15
2022-12-18T05:39:22.844Z,88.24
2022-12-18T05:42:06.266Z,88.14
2022-12-18T05:44:49.757Z,88.01
2022-12-18T05:47:33.521Z,88.05
2022-12-18T05:50:17.085Z,87.63
2022-12-18T05:53:00.502Z,88.51
2022-12-18T05:55:45.559Z,88.07
2022-12-18T05:58:29.108Z,87.86
2022-12-18T06:01:18.139Z,87.68
2022-12-18T06:04:01.748Z,88.80
2022-12-18T06:06:45.326Z,88.73
2022-12-18T06:09:30.446Z,89.24
2022-12-18T06:12:13.887Z,89.40
2022-12-18T06:14:57.342Z,89.53
2022-12-18T06:17:41.245Z,89.58
2022-12-18T06:20:27.924Z,89.33
2022-12-18T06:23:13.978Z,88.53
2022-12-18T06:25:57.971Z,87.66
2022-12-18T06:28:41.489Z,87.54
2022-12-18T06:31:26.907Z,88.23
2022-12-18T06:34:10.452Z,88.73
2022-12-18T06:36:53.938Z,88.96
2022-12-18T06:39:37.379Z,88.58
2022-12-18T06:42:24.690Z,88.92
2022-12-18T06:45:08.972Z,88.65
2022-12-18T06:47:52.576Z,88.13
2022-12-18T06:50:36.300Z,88.24
2022-12-18T06:53:19.750Z,88.79
2022-12-18T06:56:10.746Z,88.50
2022-12-18T06:58:54.599Z,88.63
2022-12-18T07:01:38.213Z,88.47
2022-12-18T07:04:21.830Z,87.28
2022-12-18T07:07:05.252Z,88.55
2022-12-18T07:09:50.942Z,88.56
2022-12-18T07:12:34.363Z,88.16
2022-12-18T07:15:17.962Z,87.52
2022-12-18T07:18:01.444Z,87.60
2022-12-18T07:20:45.211Z,88.53
2022-12-18T07:23:29.497Z,88.72
2022-12-18T07:26:15.355Z,88.96
2022-12-18T07:28:59.316Z,87.55
2022-12-18T07:31:42.840Z,87.21
2022-12-18T07:34:26.459Z,87.63
2022-12-18T07:37:09.940Z,87.94
2022-12-18T07:39:53.397Z,88.56
2022-12-18T07:42:37.909Z,88.58
2022-12-18T07:45:21.311Z,88.03
2022-12-18T07:48:04.966Z,88.30
2022-12-18T07:50:48.863Z,88.66
2022-12-18T07:53:34.702Z,89.09
2022-12-18T07:56:27.148Z,88.65
2022-12-18T07:59:11.924Z,88.71
2022-12-18T08:01:55.535Z,88.41
2022-12-18T08:04:39.079Z,88.18
2022-12-18T08:07:22.526Z,88.99
2022-12-18T08:10:07.458Z,88.43
2022-12-18T08:12:52.634Z,88.17
2022-12-18T08:15:36.363Z,87.91
2022-12-18T08:18:19.802Z,87.82
2022-12-18T08:21:12.472Z,88.58
2022-12-18T08:24:00.245Z,89.02
2022-12-18T08:27:00.853Z,89.79
2022-12-18T08:29:47.312Z,89.35
2022-12-18T08:32:30.833Z,89.65
2022-12-18T08:35:18.556Z,90.31
2022-12-18T08:38:02.252Z,89.66
2022-12-18T08:40:45.720Z,89.55
2022-12-18T08:43:48.072Z,88.67
2022-12-18T08:46:44.046Z,88.36
2022-12-18T08:49:27.699Z,87.66
2022-12-18T08:52:11.851Z,88.27
2022-12-18T08:54:58.196Z,88.11
2022-12-18T08:57:41.618Z,87.85
2022-12-18T09:00:25.206Z,88.61
2022-12-18T09:03:19.809Z,89.40
2022-12-18T09:06:03.658Z,89.73
2022-12-18T09:08:47.377Z,89.35
2022-12-18T09:11:32.913Z,89.52
2022-12-18T09:14:16.470Z,89.40
2022-12-18T09:17:00.085Z,89.10
2022-12-18T09:19:44.296Z,88.41
2022-12-18T09:22:27.823Z,89.17
2022-12-18T09:25:11.384Z,89.48
2022-12-18T09:27:55.343Z,89.92
2022-12-18T09:30:41.634Z,89.69
2022-12-18T09:33:25.634Z,89.96
2022-12-18T09:36:12.343Z,89.38
2022-12-18T09:38:55.821Z,90.34
2022-12-18T09:41:47.872Z,90.80
2022-12-18T09:44:45.484Z,91.01
2022-12-18T09:47:38.448Z,90.76
2022-12-18T09:50:41.028Z,90.89
2022-12-18T09:53:32.673Z,91.91
2022-12-18T09:56:23.939Z,92.40
2022-12-18T09:59:15.258Z,91.82
2022-12-18T10:01:58.944Z,91.09
2022-12-18T10:04:44.671Z,90.63
2022-12-18T10:07:48.043Z,91.95
2022-12-18T10:10:49.835Z,91.80
2022-12-18T10:13:51.339Z,90.98
2022-12-18T10:16:52.966Z,90.82
2022-12-18T10:19:56.638Z,90.85
2022-12-18T10:23:03.928Z,90.06
2022-12-18T10:26:06.917Z,89.99
2022-12-18T10:28:52.709Z,90.57
2022-12-18T10:31:36.791Z,90.35
2022-12-18T10:34:20.690Z,90.96
2022-12-18T10:37:16.948Z,90.52
2022-12-18T10:40:22.813Z,91.71
2022-12-18T10:43:14.224Z,92.10
2022-12-18T10:46:18.146Z,92.21
2022-12-18T10:49:01.766Z,92.06
2022-12-18T10:51:45.742Z,91.40
2022-12-18T10:54:37.144Z,91.49
2022-12-18T10:57:42.555Z,92.44
2022-12-18T11:00:31.832Z,92.11
2022-12-18T11:03:37.077Z,90.62
2022-12-18T11:06:25.549Z,90.18
2022-12-18T11:09:25.274Z,90.58
2022-12-18T11:12:11.832Z,90.83
2022-12-18T11:15:00.678Z,91.32
2022-12-18T11:17:45.115Z,91.05
2022-12-18T11:20:36.882Z,91.21
2022-12-18T11:23:25.036Z,89.92
2022-12-18T11:26:09.331Z,89.78
2022-12-18T11:29:18.395Z,90.55
2022-12-18T11:32:35.511Z,91.29
2022-12-18T11:35:48.979Z,91.26
2022-12-18T11:38:43.491Z,91.72
2022-12-18T11:42:12.875Z,91.61
2022-12-18T11:45:32.576Z,91.10
2022-12-18T11:48:39.190Z,91.26
2022-12-18T11:51:50.041Z,91.08
2022-12-18T11:54:33.623Z,90.91
2022-12-18T11:57:29.033Z,90.93
2022-12-18T12:00:23.898Z,91.39
2022-12-18T12:03:25.509Z,90.41
2022-12-18T12:06:29.498Z,90.88
2022-12-18T12:09:31.526Z,90.92
2022-12-18T12:12:54.847Z,91.51
2022-12-18T12:16:37.980Z,91.76
2022-12-18T12:19:45.182Z,91.03
2022-12-18T12:22:48.221Z,89.84
2022-12-18T12:25:56.137Z,90.45
2022-12-18T12:28:53.914Z,90.24
2022-12-18T12:31:43.230Z,89.69
2022-12-18T12:35:00.269Z,90.35
2022-12-18T12:38:06.651Z,89.80
2022-12-18T12:41:04.356Z,89.55
2022-12-18T12:43:51.587Z,89.58
2022-12-18T12:46:42.790Z,89.49
2022-12-18T12:49:37.555Z,88.91
2022-12-18T12:52:46.887Z,89.61
2022-12-18T12:55:31.646Z,89.78
2022-12-18T12:58:32.266Z,89.56
2022-12-18T13:01:30.234Z,89.66
2022-12-18T13:04:47.679Z,90.19
2022-12-18T13:07:47.163Z,89.71
2022-12-18T13:10:42.952Z,89.35
2022-12-18T13:13:54.953Z,89.89
2022-12-18T13:16:39.848Z,90.04
2022-12-18T13:19:27.415Z,90.44
2022-12-18T13:22:49.443Z,90.11
2022-12-18T13:25:38.170Z,90.83
2022-12-18T13:28:25.227Z,90.20
2022-12-18T13:31:09.249Z,89.89
2022-12-18T13:34:26.711Z,89.91
2022-12-18T13:37:32.761Z,90.78
2022-12-18T13:40:41.341Z,90.30
2022-12-18T13:43:40.138Z,89.77
2022-12-18T13:46:51.281Z,88.90
2022-12-18T13:49:42.240Z,88.38
2022-12-18T13:52:34.673Z,89.74
2022-12-18T13:55:22.147Z,90.37
2022-12-18T13:58:07.641Z,90.62
2022-12-18T14:00:51.126Z,91.29
2022-12-18T14:03:35.915Z,90.71
2022-12-18T14:06:19.508Z,90.61
2022-12-18T14:09:04.368Z,90.26
2022-12-18T14:11:52.699Z,90.36
2022-12-18T14:14:36.346Z,90.47
2022-12-18T14:17:20.886Z,90.08
2022-12-18T14:20:13.691Z,90.52
2022-12-18T14:22:58.448Z,90.62
2022-12-18T14:25:48.249Z,91.24
2022-12-18T14:28:32.679Z,91.32
2022-12-18T14:31:30.381Z,91.61
2022-12-18T14:34:18.138Z,90.84
2022-12-18T14:37:04.848Z,90.71
2022-12-18T14:40:10.603Z,89.90
2022-12-18T14:42:54.923Z,89.74
2022-12-18T14:45:43.316Z,89.55
2022-12-18T14:58:17.884Z,89.92
2022-12-18T15:01:48.508Z,90.06
2022-12-18T15:04:44.579Z,90.76
2022-12-18T15:07:47.430Z,91.14
2022-12-18T15:10:37.018Z,90.56
2022-12-18T15:17:22.446Z,91.15
2022-12-18T15:20:12.226Z,91.23
2022-12-18T15:22:55.774Z,91.63
2022-12-18T15:25:39.555Z,91.95
2022-12-18T15:28:27.017Z,91.60
2022-12-18T15:31:10.775Z,91.10
2022-12-18T15:33:54.200Z,91.55
2022-12-18T15:36:37.801Z,91.14
2022-12-18T15:39:21.554Z,90.33
2022-12-18T15:42:23.519Z,90.35
2022-12-18T15:45:12.997Z,91.01
2022-12-18T15:47:56.900Z,91.65
2022-12-18T15:50:40.402Z,90.95
2022-12-18T15:53:28.955Z,91.01
2022-12-18T15:56:32.673Z,90.05
2022-12-18T15:59:21.026Z,89.21
2022-12-18T16:02:19.393Z,89.21
2022-12-18T16:05:03.207Z,88.69
2022-12-18T16:07:47.721Z,89.13
2022-12-18T16:10:31.231Z,89.08
2022-12-18T16:13:19.996Z,89.29
2022-12-18T16:16:03.521Z,89.53
2022-12-18T16:18:47.046Z,89.86
2022-12-18T16:21:33.926Z,90.33
2022-12-18T16:24:23.919Z,89.73
2022-12-18T16:27:08.590Z,90.24
2022-12-18T16:29:52.407Z,88.93
2022-12-18T16:32:36.052Z,89.39
2022-12-18T16:35:19.765Z,88.98
2022-12-18T16:38:03.204Z,89.92
2022-12-18T16:41:05.254Z,89.80
2022-12-18T16:43:54.407Z,89.35
2022-12-18T16:46:40.171Z,89.11
2022-12-18T16:49:23.770Z,89.22
2022-12-18T16:52:08.255Z,89.09
2022-12-18T16:54:51.945Z,88.73
2022-12-18T16:57:35.458Z,88.81
2022-12-18T17:00:19.075Z,88.69
2022-12-18T17:03:02.695Z,88.65
2022-12-18T17:05:50.111Z,88.31
2022-12-18T17:08:36.552Z,87.03
2022-12-18T17:11:20.000Z,87.75
2022-12-18T17:14:16.717Z,88.70
2022-12-18T17:17:20.875Z,88.83
2022-12-18T17:20:04.904Z,88.25
2022-12-18T17:22:48.944Z,87.79
2022-12-18T17:25:32.412Z,88.43
2022-12-18T17:28:16.262Z,89.23
2022-12-18T17:31:00.533Z,89.43
2022-12-18T17:33:45.037Z,89.07
2022-12-18T17:36:29.237Z,88.86
2022-12-18T17:39:20.045Z,88.59
2022-12-18T17:42:04.063Z,88.45
2022-12-18T17:44:48.850Z,88.23
2022-12-18T17:47:35.097Z,87.87
2022-12-18T17:50:22.583Z,87.82
2022-12-18T17:53:08.858Z,87.18
2022-12-18T17:56:01.985Z,87.60
2022-12-18T17:58:51.997Z,88.16
2022-12-18T18:01:43.768Z,88.19
2022-12-18T18:04:27.840Z,87.29
2022-12-18T18:07:11.284Z,86.95
2022-12-18T18:09:54.827Z,87.55
2022-12-18T18:12:59.297Z,87.73
2022-12-18T18:16:05.069Z,89.06
2022-12-18T18:18:52.860Z,87.98
2022-12-18T18:21:47.234Z,87.60
2022-12-18T18:24:35.608Z,87.48
